createdAt,value
2022-10-10T05:04:01.913Z,20.70
2022-10-10T05:07:24.417Z,20.70
2022-10-10T05:10:47.271Z,20.70
2022-10-10T05:14:09.601Z,20.70
2022-10-10T05:17:31.693Z,20.60
2022-10-10T05:20:53.814Z,20.60
2022-10-10T05:24:15.932Z,20.60
2022-10-10T05:27:38.096Z,20.70
2022-10-10T05:31:00.284Z,20.70
2022-10-10T05:34:22.491Z,20.70
2022-10-10T05:37:44.600Z,20.70
2022-10-10T05:41:07.915Z,20.70
2022-10-10T05:44:30.110Z,20.70
2022-10-10T05:47:52.254Z,20.70
2022-10-10T05:51:14.366Z,20.70
2022-10-10T05:54:36.785Z,20.60
2022-10-10T05:58:00.045Z,20.70
2022-10-10T06:01:22.236Z,20.70
2022-10-10T06:04:44.449Z,20.70
2022-10-10T06:08:11.537Z,20.70
2022-10-10T06:11:34.364Z,20.70
2022-10-10T06:14:56.490Z,20.70
2022-10-10T06:18:18.650Z,20.80
2022-10-10T06:21:40.813Z,20.80
2022-10-10T06:25:03.077Z,20.80
2022-10-10T06:28:25.291Z,20.80
2022-10-10T06:31:47.500Z,20.70
2022-10-10T06:35:09.975Z,20.50
2022-10-10T06:38:32.459Z,20.40
2022-10-10T06:41:54.774Z,20.50
2022-10-10T06:45:17.034Z,20.60
2022-10-10T06:48:39.293Z,20.70
2022-10-10T06:52:01.489Z,20.70
2022-10-10T06:55:23.887Z,20.70
2022-10-10T06:58:46.150Z,20.70
2022-10-10T07:02:13.000Z,20.70
2022-10-10T07:05:35.210Z,20.80
2022-10-10T07:08:58.225Z,20.80
2022-10-10T07:12:20.426Z,20.80
2022-10-10T07:15:43.288Z,20.80
2022-10-10T07:19:05.914Z,20.80
2022-10-10T07:22:28.137Z,20.80
2022-10-10T07:25:51.146Z,20.80
2022-10-10T07:29:13.379Z,20.90
2022-10-10T07:32:35.595Z,20.90
2022-10-10T07:35:57.869Z,20.90
2022-10-10T07:39:21.095Z,20.90
2022-10-10T07:42:43.434Z,20.80
2022-10-10T07:46:09.804Z,20.80
2022-10-10T07:49:34.381Z,20.80
2022-10-10T07:52:56.557Z,20.80
2022-10-10T07:56:18.740Z,20.90
2022-10-10T07:59:41.005Z,20.90
2022-10-10T08:03:03.270Z,20.90
2022-10-10T08:06:25.536Z,20.80
2022-10-10T08:09:47.808Z,20.80
2022-10-10T08:13:10.010Z,20.90
2022-10-10T08:16:32.312Z,20.90
2022-10-10T08:19:54.559Z,20.90
2022-10-10T08:23:17.636Z,20.90
2022-10-10T08:26:41.703Z,20.90
2022-10-10T08:30:04.579Z,20.90
2022-10-10T08:33:27.899Z,20.90
2022-10-10T08:36:50.251Z,20.90
2022-10-10T08:40:21.168Z,20.90
2022-10-10T08:43:54.680Z,20.90
2022-10-10T08:47:25.766Z,20.90
2022-10-10T08:50:52.877Z,20.90
2022-10-10T08:54:17.460Z,20.90
2022-10-10T08:57:53.486Z,20.90
2022-10-10T09:01:21.891Z,20.90
2022-10-10T09:04:46.258Z,20.90
2022-10-10T09:08:26.880Z,20.90
2022-10-10T09:11:55.231Z,20.90
2022-10-10T09:15:37.269Z,20.90
2022-10-10T09:19:13.571Z,21.00
2022-10-10T09:22:53.420Z,21.00
2022-10-10T09:26:21.701Z,21.00
2022-10-10T09:29:51.521Z,21.00
2022-10-10T09:33:27.266Z,21.00
2022-10-10T09:36:50.275Z,21.00
2022-10-10T09:40:12.393Z,21.10
2022-10-10T09:43:35.511Z,21.10
2022-10-10T09:46:59.670Z,21.10
2022-10-10T09:50:23.438Z,21.10
2022-10-10T09:53:47.914Z,21.10
2022-10-10T09:57:15.126Z,21.10
2022-10-10T10:00:37.801Z,21.10
2022-10-10T10:04:26.568Z,21.20
2022-10-10T10:07:52.546Z,21.20
2022-10-10T10:11:28.628Z,21.10
2022-10-10T10:14:57.542Z,21.10
2022-10-10T10:18:27.805Z,21.10
2022-10-10T10:21:51.796Z,21.10
2022-10-10T10:25:38.833Z,21.10
2022-10-10T10:29:01.134Z,21.10
2022-10-10T10:32:23.316Z,21.10
2022-10-10T10:35:51.154Z,21.00
2022-10-10T10:39:34.743Z,21.00
2022-10-10T10:43:18.526Z,20.90
2022-10-10T10:47:24.635Z,21.00
2022-10-10T10:50:55.228Z,21.00
2022-10-10T10:54:40.482Z,21.10
2022-10-10T10:59:09.861Z,21.10
2022-10-10T11:02:59.517Z,21.10
2022-10-10T11:06:54.203Z,21.30
2022-10-10T11:10:45.086Z,21.40
2022-10-10T11:14:19.926Z,21.40
2022-10-10T11:17:50.366Z,21.30
2022-10-10T11:21:20.857Z,21.30
2022-10-10T11:25:16.224Z,21.20
2022-10-10T11:29:01.318Z,21.20
2022-10-10T11:32:35.636Z,21.20
2022-10-10T11:36:06.973Z,21.20
2022-10-10T11:39:55.379Z,21.20
2022-10-10T11:43:45.106Z,21.20
2022-10-10T11:47:26.829Z,21.20
2022-10-10T11:50:54.941Z,21.20
2022-10-10T11:54:55.011Z,21.20
2022-10-10T11:58:25.789Z,21.20
2022-10-10T12:01:52.673Z,21.10
2022-10-10T12:05:21.515Z,21.00
2022-10-10T12:08:57.258Z,21.10
2022-10-10T12:12:27.956Z,21.10
2022-10-10T12:15:53.516Z,21.00
2022-10-10T12:19:24.357Z,21.10
2022-10-10T12:23:06.045Z,21.10
2022-10-10T12:26:56.879Z,21.10
2022-10-10T12:30:24.829Z,21.10
2022-10-10T12:33:47.325Z,21.20
2022-10-10T12:37:26.318Z,21.20
2022-10-10T12:40:57.583Z,21.20
2022-10-10T12:44:44.591Z,21.20
2022-10-10T12:48:20.109Z,21.20
2022-10-10T12:51:43.696Z,21.20
2022-10-10T12:55:19.242Z,21.20
2022-10-10T12:58:41.577Z,21.20
2022-10-10T13:02:11.950Z,21.20
2022-10-10T13:05:36.983Z,21.20
2022-10-10T13:09:01.309Z,21.20
2022-10-10T13:12:23.540Z,21.20
2022-10-10T13:15:58.283Z,21.20
2022-10-10T13:19:25.332Z,21.20
2022-10-10T13:22:47.577Z,21.20
2022-10-10T13:26:28.063Z,21.20
2022-10-10T13:29:51.395Z,21.20
2022-10-10T13:33:23.160Z,21.20
2022-10-10T13:36:46.005Z,21.20
2022-10-10T13:40:14.882Z,21.20
2022-10-10T13:43:37.211Z,21.20
2022-10-10T13:46:59.684Z,21.20
2022-10-10T13:50:35.547Z,21.10
2022-10-10T13:53:57.802Z,21.10
2022-10-10T13:57:24.227Z,21.10
2022-10-10T14:00:55.968Z,21.10
2022-10-10T14:04:33.626Z,21.10
2022-10-10T14:07:57.822Z,21.10
2022-10-10T14:11:22.764Z,21.10
2022-10-10T14:14:49.978Z,21.10
2022-10-10T14:18:20.177Z,21.10
2022-10-10T14:21:42.379Z,21.10
2022-10-10T14:25:04.878Z,21.20
2022-10-10T14:28:30.875Z,21.20
2022-10-10T14:31:53.124Z,21.10
2022-10-10T14:35:15.465Z,21.10
2022-10-10T14:38:37.686Z,21.20
2022-10-10T14:42:01.933Z,21.10
2022-10-10T14:45:24.495Z,21.10
2022-10-10T14:48:46.909Z,21.10
2022-10-10T14:52:09.118Z,21.10
2022-10-10T14:55:31.630Z,21.10
2022-10-10T14:58:53.817Z,21.10
2022-10-10T15:02:19.615Z,21.10
2022-10-10T15:05:42.226Z,21.10
2022-10-10T15:09:11.914Z,21.10
2022-10-10T15:12:46.935Z,21.10
2022-10-10T15:16:09.078Z,21.10
2022-10-10T15:19:31.340Z,21.10
2022-10-10T15:22:53.944Z,21.10
2022-10-10T15:26:16.150Z,21.10
2022-10-10T15:29:39.468Z,21.10
2022-10-10T15:33:01.680Z,21.10
2022-10-10T15:36:23.962Z,21.10
2022-10-10T15:39:47.735Z,21.20
2022-10-10T15:43:10.025Z,21.10
2022-10-10T15:46:32.262Z,21.20
2022-10-10T15:49:54.589Z,21.20
2022-10-10T15:53:17.617Z,21.10
2022-10-10T15:56:40.538Z,21.20
2022-10-10T16:00:03.292Z,21.10
2022-10-10T16:03:34.846Z,21.10
2022-10-10T16:07:20.301Z,21.10
2022-10-10T16:10:43.772Z,21.10
2022-10-10T16:14:05.984Z,21.10
2022-10-10T16:17:28.211Z,21.20
2022-10-10T16:20:50.433Z,21.20
2022-10-10T16:24:12.928Z,21.10
2022-10-10T16:27:37.111Z,21.10
2022-10-10T16:31:06.091Z,21.10
2022-10-10T16:34:28.292Z,21.10
2022-10-10T16:37:50.644Z,21.10
2022-10-10T16:41:35.169Z,21.10
2022-10-10T16:44:57.689Z,21.10
2022-10-10T16:48:19.919Z,21.10
2022-10-10T16:51:42.197Z,21.00
2022-10-10T16:55:06.778Z,21.00
2022-10-10T16:58:29.603Z,21.00
2022-10-10T17:01:52.126Z,21.00
2022-10-10T17:05:14.410Z,20.90
2022-10-10T17:08:36.990Z,21.00
2022-10-10T17:11:59.185Z,21.00
2022-10-10T17:15:21.452Z,20.90
2022-10-10T17:18:44.365Z,20.90
2022-10-10T17:22:06.559Z,21.00
2022-10-10T17:25:28.752Z,21.00
2022-10-10T17:28:53.133Z,21.00
2022-10-10T17:32:15.457Z,21.00
2022-10-10T17:35:45.957Z,21.00
2022-10-10T17:39:08.734Z,21.10
2022-10-10T17:42:31.184Z,21.10
2022-10-10T17:46:21.639Z,21.10
2022-10-10T17:49:46.375Z,21.20
2022-10-10T17:53:08.690Z,21.20
2022-10-10T17:56:31.391Z,21.30
2022-10-10T17:59:53.675Z,21.30
2022-10-10T18:03:15.965Z,21.30
2022-10-10T18:06:38.322Z,21.30
2022-10-10T18:10:00.583Z,21.30
2022-10-10T18:13:22.860Z,21.30
2022-10-10T18:16:45.108Z,21.30
2022-10-10T18:20:07.978Z,21.20
2022-10-10T18:23:31.253Z,21.20
2022-10-10T18:26:53.493Z,21.20
2022-10-10T18:30:15.830Z,21.20
2022-10-10T18:33:39.212Z,21.20
2022-10-10T18:37:01.527Z,21.20
2022-10-10T18:40:23.761Z,21.20
2022-10-10T18:43:46.559Z,21.20
2022-10-10T18:47:08.708Z,21.20
2022-10-10T18:50:30.820Z,21.10
2022-10-10T18:53:58.502Z,21.20
2022-10-10T18:57:21.077Z,21.20
2022-10-10T19:00:43.178Z,21.20
2022-10-10T19:04:07.968Z,21.20
2022-10-10T19:07:30.118Z,21.10
2022-10-10T19:10:52.373Z,21.10
2022-10-10T19:14:18.072Z,21.10
2022-10-10T19:17:40.200Z,21.10
2022-10-10T19:21:04.807Z,21.00
2022-10-10T19:24:27.224Z,21.00
2022-10-10T19:27:49.370Z,21.00
2022-10-10T19:31:15.151Z,20.90
2022-10-10T19:34:37.861Z,20.90
2022-10-10T19:37:59.979Z,20.90
2022-10-10T19:41:22.585Z,20.90
2022-10-10T19:44:47.309Z,21.00
2022-10-10T19:48:10.033Z,21.10
2022-10-10T19:51:32.186Z,21.10
2022-10-10T19:54:54.311Z,21.20
2022-10-10T19:58:16.417Z,21.20
2022-10-10T20:01:38.670Z,21.20
2022-10-10T20:05:00.805Z,21.20
2022-10-10T20:08:22.927Z,21.20
2022-10-10T20:11:45.128Z,21.30
2022-10-10T20:15:07.846Z,21.20
2022-10-10T20:18:31.650Z,21.20
2022-10-10T20:21:53.841Z,21.20
2022-10-10T20:25:15.961Z,21.20
2022-10-10T20:28:38.777Z,21.20
2022-10-10T20:32:00.935Z,21.20
2022-10-10T20:35:23.100Z,21.20
2022-10-10T20:38:50.571Z,21.20
2022-10-10T20:42:12.773Z,21.20
2022-10-10T20:45:36.329Z,21.20
2022-10-10T20:49:00.388Z,21.20
2022-10-10T20:52:22.502Z,21.20
2022-10-10T20:55:44.613Z,21.20
2022-10-10T20:59:07.388Z,21.20
2022-10-10T21:02:29.558Z,21.20
2022-10-10T21:06:02.069Z,21.30
2022-10-10T21:09:24.234Z,21.20
2022-10-10T21:12:46.385Z,21.20
2022-10-10T21:16:11.374Z,21.20
2022-10-10T21:19:33.705Z,21.20
2022-10-10T21:22:55.961Z,21.20
2022-10-10T21:26:20.410Z,21.20
2022-10-10T21:29:42.543Z,21.20
2022-10-10T21:33:04.649Z,21.20
2022-10-10T21:36:27.065Z,21.20
2022-10-10T21:39:49.250Z,21.20
2022-10-10T21:43:12.601Z,21.10
2022-10-10T21:46:37.193Z,21.10
2022-10-10T21:49:59.477Z,21.10
2022-10-10T21:53:21.647Z,21.10
2022-10-10T21:56:44.233Z,21.10
2022-10-10T22:00:07.138Z,21.10
2022-10-10T22:03:29.230Z,21.10
2022-10-10T22:06:51.373Z,21.10
2022-10-10T22:10:16.511Z,21.10
2022-10-10T22:13:38.905Z,21.10
2022-10-10T22:17:01.135Z,21.10
2022-10-10T22:20:23.474Z,21.10
2022-10-10T22:23:45.770Z,21.10
2022-10-10T22:27:08.474Z,21.10
2022-10-10T22:30:30.594Z,21.10
2022-10-10T22:33:52.755Z,21.10
2022-10-10T22:37:14.868Z,21.10
2022-10-10T22:40:37.069Z,21.10
2022-10-10T22:43:59.189Z,21.10
2022-10-10T22:47:21.349Z,21.00
2022-10-10T22:50:43.618Z,21.10
2022-10-10T22:54:06.061Z,21.10
2022-10-10T22:57:28.362Z,21.10
2022-10-10T23:00:50.849Z,21.10
2022-10-10T23:04:13.430Z,21.10
2022-10-10T23:07:35.820Z,21.00
2022-10-10T23:10:58.257Z,21.10
2022-10-10T23:14:20.402Z,21.00
2022-10-10T23:17:42.659Z,21.00
2022-10-10T23:21:04.989Z,21.00
2022-10-10T23:24:27.841Z,21.00
2022-10-10T23:27:50.230Z,21.00
2022-10-10T23:31:14.277Z,21.00
2022-10-10T23:34:36.390Z,21.00
2022-10-10T23:37:58.564Z,21.00
2022-10-10T23:41:21.166Z,21.00
2022-10-10T23:44:43.312Z,21.00
2022-10-10T23:48:05.598Z,21.00
2022-10-10T23:51:29.500Z,20.90
2022-10-10T23:54:51.596Z,21.00
2022-10-10T23:58:14.239Z,20.90
